ROT4 KJFK-LROP
Flight info
| Callsign | ROT4 |
|---|---|
| Flight time | N/A |
| Altitude | 37000 |
| Route | MERIT DCT HFD DCT PUT DCT EBONY DCT ELSIR/M085F370 DCT 50N050W 52N040W 53N030W 53N020W DCT MALOT/N0496F370 DCT GISTI/N0492F390 DCT LUPOR DCT WTD DCT ENJEX DCT ADHAV DCT AXNEF DCT ZIPWE DCT OZZIL DCT SAWPE Q63 CPT UL9 KONAN UL607 MATUG DCT BOMBI DCT TENLO DCT LAMSI/N0482F410 DCT STEIN DCT LAMIT DCT TOSVI |
| Aircraft | A359/H-SDE2E3GHIJ1J3J4J5LM1ORWXY/LB1D1 |
Departure
| Time | 2026-05-01 07:42 |
|---|---|
| Airport | John F. Kennedy International Airport (KJFK) |
Arrival
| Time | N/A |
|---|---|
| Airport | Bucharest Henri Coandă International Airport (LROP) |
| Time | Latitude | Longitude | Altitude | Speed | Heading |
|---|---|---|---|---|---|
| 2026-05-01 07:23 | 40.64019 | -73.78065 | 27 ft | 0 kts | 247° |
| 2026-05-01 07:28 | 40.64019 | -73.78066 | 27 ft | 0 kts | 248° |
| 2026-05-01 07:30 | 40.64022 | -73.78056 | 27 ft | 4 kts | 251° |
| 2026-05-01 07:31 | 40.64031 | -73.78023 | 26 ft | 4 kts | 243° |
| 2026-05-01 07:31 | 40.64073 | -73.77994 | 25 ft | 0 kts | 151° |
| 2026-05-01 07:36 | 40.64057 | -73.77982 | 25 ft | 9 kts | 151° |
| 2026-05-01 07:36 | 40.63963 | -73.77945 | 27 ft | 17 kts | 169° |
| 2026-05-01 07:36 | 40.63850 | -73.77924 | 27 ft | 14 kts | 169° |
| 2026-05-01 07:36 | 40.63749 | -73.77908 | 27 ft | 15 kts | 174° |
| 2026-05-01 07:37 | 40.63611 | -73.77885 | 26 ft | 9 kts | 162° |
| 2026-05-01 07:37 | 40.63567 | -73.77837 | 26 ft | 9 kts | 133° |
| 2026-05-01 07:37 | 40.63529 | -73.77767 | 27 ft | 10 kts | 122° |
| 2026-05-01 07:38 | 40.63472 | -73.77739 | 27 ft | 9 kts | 197° |
| 2026-05-01 07:38 | 40.63419 | -73.77778 | 28 ft | 9 kts | 210° |
| 2026-05-01 07:38 | 40.63304 | -73.77794 | 29 ft | 8 kts | 131° |
| 2026-05-01 07:39 | 40.63272 | -73.77726 | 30 ft | 12 kts | 120° |
| 2026-05-01 07:39 | 40.63216 | -73.77604 | 29 ft | 18 kts | 121° |
| 2026-05-01 07:39 | 40.63079 | -73.77297 | 27 ft | 21 kts | 121° |
| 2026-05-01 07:40 | 40.63011 | -73.77149 | 27 ft | 13 kts | 121° |
| 2026-05-01 07:40 | 40.62940 | -73.77093 | 27 ft | 12 kts | 192° |
| 2026-05-01 07:40 | 40.62869 | -73.77148 | 28 ft | 9 kts | 212° |
| 2026-05-01 07:40 | 40.62830 | -73.77188 | 28 ft | 7 kts | 231° |
| 2026-05-01 07:41 | 40.62830 | -73.77243 | 28 ft | 6 kts | 300° |
| 2026-05-01 07:41 | 40.62834 | -73.77252 | 28 ft | 0 kts | 301° |
| 2026-05-01 07:41 | 40.62897 | -73.77392 | 30 ft | 45 kts | 301° |
| 2026-05-01 07:42 | 40.63158 | -73.77966 | 31 ft | 99 kts | 301° |
| 2026-05-01 07:42 | 40.63597 | -73.78931 | 30 ft | 145 kts | 300° |
| 2026-05-01 07:42 | 40.64142 | -73.80161 | 400 ft | 152 kts | 304° |
| 2026-05-01 07:42 | 40.64460 | -73.81442 | 1026 ft | 157 kts | 274° |
| 2026-05-01 07:43 | 40.64035 | -73.82891 | 1271 ft | 185 kts | 244° |
| 2026-05-01 07:43 | 40.63296 | -73.84405 | 1496 ft | 207 kts | 244° |
| 2026-05-01 07:43 | 40.61817 | -73.88077 | 2115 ft | 244 kts | 250° |
| 2026-05-01 07:44 | 40.59982 | -73.91994 | 3291 ft | 263 kts | 221° |
| 2026-05-01 07:44 | 40.56449 | -73.92835 | 4745 ft | 271 kts | 164° |
| 2026-05-01 07:45 | 40.54818 | -73.91578 | 5407 ft | 277 kts | 137° |
| 2026-05-01 07:45 | 40.53761 | -73.89453 | 6045 ft | 283 kts | 110° |
| 2026-05-01 07:45 | 40.53513 | -73.86897 | 6642 ft | 286 kts | 83° |
| 2026-05-01 07:45 | 40.54106 | -73.84409 | 7246 ft | 287 kts | 62° |
| 2026-05-01 07:46 | 40.55158 | -73.82153 | 7817 ft | 291 kts | 47° |
| 2026-05-01 07:46 | 40.56582 | -73.80312 | 8454 ft | 291 kts | 37° |
| 2026-05-01 07:46 | 40.59915 | -73.77206 | 9767 ft | 296 kts | 27° |
| 2026-05-01 07:47 | 40.61702 | -73.75795 | 10285 ft | 304 kts | 26° |
| 2026-05-01 07:47 | 40.63585 | -73.74356 | 10574 ft | 321 kts | 26° |
| 2026-05-01 07:47 | 40.65569 | -73.72840 | 10848 ft | 338 kts | 26° |
| 2026-05-01 07:47 | 40.67641 | -73.71231 | 11124 ft | 354 kts | 26° |
| 2026-05-01 07:48 | 40.72013 | -73.67756 | 11662 ft | 383 kts | 27° |
| 2026-05-01 07:48 | 40.74325 | -73.65892 | 12038 ft | 393 kts | 27° |
| 2026-05-01 07:48 | 40.76674 | -73.63988 | 12555 ft | 399 kts | 27° |
| 2026-05-01 07:49 | 40.79053 | -73.62057 | 13095 ft | 404 kts | 27° |
| 2026-05-01 07:49 | 40.83900 | -73.58123 | 14210 ft | 412 kts | 27° |
| 2026-05-01 07:49 | 40.86354 | -73.56133 | 14732 ft | 416 kts | 27° |
| 2026-05-01 07:50 | 40.88834 | -73.54123 | 15246 ft | 419 kts | 27° |
| 2026-05-01 07:50 | 40.92995 | -73.50749 | 16116 ft | 425 kts | 27° |
| 2026-05-01 07:50 | 40.95524 | -73.48696 | 16608 ft | 428 kts | 27° |
| 2026-05-01 07:51 | 40.98901 | -73.45952 | 17295 ft | 433 kts | 27° |
| 2026-05-01 07:51 | 41.01480 | -73.43854 | 17810 ft | 436 kts | 26° |
| 2026-05-01 07:51 | 41.03230 | -73.42429 | 18158 ft | 439 kts | 26° |
| 2026-05-01 07:52 | 41.08441 | -73.38181 | 19062 ft | 446 kts | 27° |
| 2026-05-01 07:52 | 41.11093 | -73.36015 | 19544 ft | 449 kts | 27° |
| 2026-05-01 07:52 | 41.13761 | -73.33834 | 20048 ft | 452 kts | 27° |
| 2026-05-01 07:53 | 41.19154 | -73.29420 | 21031 ft | 459 kts | 27° |
| 2026-05-01 07:53 | 41.21881 | -73.27184 | 21511 ft | 462 kts | 27° |
| 2026-05-01 07:53 | 41.24629 | -73.24929 | 21990 ft | 465 kts | 27° |
| 2026-05-01 07:53 | 41.27395 | -73.22656 | 22463 ft | 468 kts | 27° |
| 2026-05-01 07:54 | 41.32947 | -73.18090 | 23393 ft | 475 kts | 27° |
| 2026-05-01 07:55 | 41.40332 | -73.08964 | 24592 ft | 496 kts | 52° |
| 2026-05-01 07:55 | 41.44023 | -73.01174 | 25378 ft | 504 kts | 58° |
| 2026-05-01 07:56 | 41.49253 | -72.88880 | 26509 ft | 512 kts | 59° |
| 2026-05-01 07:56 | 41.52825 | -72.80608 | 27241 ft | 517 kts | 59° |
| 2026-05-01 07:57 | 41.54642 | -72.76445 | 27608 ft | 520 kts | 58° |
| 2026-05-01 07:57 | 41.58313 | -72.68055 | 28320 ft | 525 kts | 59° |
| 2026-05-01 07:58 | 41.62016 | -72.59580 | 28943 ft | 530 kts | 59° |
| 2026-05-01 07:58 | 41.65734 | -72.51075 | 29509 ft | 536 kts | 59° |
| 2026-05-01 07:59 | 41.69596 | -72.42512 | 30268 ft | 535 kts | 58° |
| 2026-05-01 07:59 | 41.73456 | -72.34000 | 30920 ft | 535 kts | 59° |
| 2026-05-01 08:00 | 41.81111 | -72.16947 | 32086 ft | 535 kts | 59° |
| 2026-05-01 08:01 | 41.86820 | -72.04134 | 33082 ft | 531 kts | 59° |
| 2026-05-01 08:01 | 41.88711 | -71.99876 | 33338 ft | 531 kts | 59° |
| 2026-05-01 08:01 | 41.90601 | -71.95617 | 33594 ft | 531 kts | 59° |
| 2026-05-01 08:02 | 41.94398 | -71.87097 | 34075 ft | 530 kts | 57° |
| 2026-05-01 08:02 | 41.96557 | -71.83169 | 34277 ft | 528 kts | 49° |
| 2026-05-01 08:03 | 42.01390 | -71.75744 | 34768 ft | 526 kts | 47° |
| 2026-05-01 08:03 | 42.03857 | -71.72098 | 34930 ft | 526 kts | 47° |
| 2026-05-01 08:03 | 42.08815 | -71.64831 | 35264 ft | 527 kts | 47° |
| 2026-05-01 08:04 | 42.13760 | -71.57552 | 35613 ft | 526 kts | 47° |
| 2026-05-01 08:04 | 42.18654 | -71.50301 | 35904 ft | 526 kts | 47° |
| 2026-05-01 08:05 | 42.23570 | -71.42985 | 36197 ft | 526 kts | 47° |
| 2026-05-01 08:05 | 42.26027 | -71.39322 | 36342 ft | 526 kts | 47° |
| 2026-05-01 08:05 | 42.28478 | -71.35662 | 36477 ft | 526 kts | 47° |
| 2026-05-01 08:06 | 42.33385 | -71.28325 | 36784 ft | 525 kts | 48° |
| 2026-05-01 08:07 | 42.43249 | -71.13519 | 36858 ft | 532 kts | 48° |
| 2026-05-01 08:08 | 42.50640 | -71.02377 | 36852 ft | 531 kts | 48° |
| 2026-05-01 08:09 | 42.60503 | -70.87440 | 36837 ft | 531 kts | 49° |
| 2026-05-01 08:09 | 42.65428 | -70.79953 | 36848 ft | 530 kts | 49° |
| 2026-05-01 08:10 | 42.75216 | -70.65014 | 36840 ft | 530 kts | 49° |
| 2026-05-01 08:11 | 42.85017 | -70.49980 | 36825 ft | 530 kts | 49° |
| 2026-05-01 08:12 | 42.92321 | -70.38725 | 36818 ft | 530 kts | 49° |
| 2026-05-01 08:13 | 42.99650 | -70.27386 | 36817 ft | 531 kts | 50° |
| 2026-05-01 08:13 | 43.06975 | -70.16011 | 36817 ft | 531 kts | 50° |
| 2026-05-01 08:14 | 43.11825 | -70.08454 | 36821 ft | 531 kts | 50° |
| 2026-05-01 08:14 | 43.16693 | -70.00849 | 36823 ft | 531 kts | 50° |
| 2026-05-01 08:15 | 43.23987 | -69.89415 | 36819 ft | 530 kts | 50° |
| 2026-05-01 08:16 | 43.28847 | -69.81773 | 36819 ft | 530 kts | 50° |
| 2026-05-01 08:16 | 43.33670 | -69.74171 | 36798 ft | 530 kts | 50° |
| 2026-05-01 08:17 | 43.38511 | -69.66519 | 36813 ft | 530 kts | 50° |
| 2026-05-01 08:17 | 43.43334 | -69.58873 | 36806 ft | 529 kts | 50° |
| 2026-05-01 08:18 | 43.48155 | -69.51210 | 36801 ft | 529 kts | 51° |
| 2026-05-01 08:19 | 43.57758 | -69.35886 | 36796 ft | 529 kts | 51° |
| 2026-05-01 08:19 | 43.62563 | -69.28188 | 36794 ft | 528 kts | 51° |
| 2026-05-01 08:20 | 43.67359 | -69.20485 | 36788 ft | 528 kts | 51° |
| 2026-05-01 08:20 | 43.72149 | -69.12771 | 36789 ft | 528 kts | 51° |
| 2026-05-01 08:21 | 43.76898 | -69.05100 | 36785 ft | 528 kts | 51° |
| 2026-05-01 08:21 | 43.81674 | -68.97370 | 36784 ft | 527 kts | 51° |
| 2026-05-01 08:22 | 43.86436 | -68.89638 | 36782 ft | 527 kts | 52° |
| 2026-05-01 08:22 | 43.91188 | -68.81899 | 36780 ft | 527 kts | 52° |
| 2026-05-01 08:23 | 43.95939 | -68.74143 | 36777 ft | 527 kts | 52° |
| 2026-05-01 08:23 | 44.00646 | -68.66440 | 36774 ft | 526 kts | 52° |
| 2026-05-01 08:24 | 44.05378 | -68.58674 | 36766 ft | 526 kts | 52° |
| 2026-05-01 08:24 | 44.10101 | -68.50901 | 36766 ft | 526 kts | 52° |
| 2026-05-01 08:25 | 44.14814 | -68.43124 | 36766 ft | 525 kts | 52° |
| 2026-05-01 08:25 | 44.19519 | -68.35338 | 36766 ft | 525 kts | 52° |
| 2026-05-01 08:26 | 44.24216 | -68.27545 | 36737 ft | 525 kts | 52° |
| 2026-05-01 08:26 | 44.28911 | -68.19735 | 36755 ft | 524 kts | 53° |
| 2026-05-01 08:27 | 44.33597 | -68.11917 | 36758 ft | 524 kts | 53° |
| 2026-05-01 08:27 | 44.38241 | -68.04149 | 36757 ft | 524 kts | 53° |
| 2026-05-01 08:28 | 44.42912 | -67.96314 | 36745 ft | 524 kts | 53° |
| 2026-05-01 08:28 | 44.47579 | -67.88464 | 36746 ft | 524 kts | 53° |
| 2026-05-01 08:29 | 44.52242 | -67.80599 | 36762 ft | 524 kts | 53° |
| 2026-05-01 08:29 | 44.56894 | -67.72730 | 36737 ft | 524 kts | 53° |
| 2026-05-01 08:30 | 44.61539 | -67.64853 | 36756 ft | 524 kts | 53° |
| 2026-05-01 08:30 | 44.66155 | -67.57003 | 36755 ft | 524 kts | 53° |
| 2026-05-01 08:31 | 44.70801 | -67.49081 | 36726 ft | 524 kts | 53° |
| 2026-05-01 08:31 | 44.75435 | -67.41159 | 36747 ft | 524 kts | 54° |
| 2026-05-01 08:32 | 44.80065 | -67.33217 | 36747 ft | 524 kts | 54° |
| 2026-05-01 08:32 | 44.84683 | -67.25276 | 36746 ft | 524 kts | 54° |
| 2026-05-01 08:33 | 44.89267 | -67.17289 | 36747 ft | 522 kts | 57° |
| 2026-05-01 08:33 | 44.93060 | -67.08685 | 36753 ft | 518 kts | 64° |
| 2026-05-01 08:34 | 44.96623 | -66.99841 | 36752 ft | 518 kts | 65° |
| 2026-05-01 08:34 | 45.00139 | -66.90942 | 36733 ft | 518 kts | 65° |
| 2026-05-01 08:35 | 45.03651 | -66.82047 | 36743 ft | 518 kts | 65° |
| 2026-05-01 08:35 | 45.07143 | -66.73208 | 36740 ft | 518 kts | 65° |
| 2026-05-01 08:36 | 45.10659 | -66.64291 | 36742 ft | 518 kts | 65° |
| 2026-05-01 08:36 | 45.14163 | -66.55375 | 36739 ft | 518 kts | 65° |
| 2026-05-01 08:37 | 45.17659 | -66.46452 | 36742 ft | 517 kts | 65° |
| 2026-05-01 08:37 | 45.21122 | -66.37582 | 36746 ft | 517 kts | 65° |
| 2026-05-01 08:38 | 45.24597 | -66.28651 | 36750 ft | 517 kts | 65° |
| 2026-05-01 08:38 | 45.28069 | -66.19703 | 36749 ft | 517 kts | 65° |
| 2026-05-01 08:39 | 45.31537 | -66.10732 | 36747 ft | 518 kts | 65° |
| 2026-05-01 08:39 | 45.35002 | -66.01740 | 36747 ft | 518 kts | 65° |
| 2026-05-01 08:40 | 45.40189 | -65.88228 | 36740 ft | 518 kts | 65° |
| 2026-05-01 08:40 | 45.43055 | -65.80731 | 36751 ft | 520 kts | 65° |
| 2026-05-01 08:41 | 45.47068 | -65.70204 | 36756 ft | 520 kts | 65° |
| 2026-05-01 08:41 | 45.50518 | -65.61118 | 36783 ft | 520 kts | 65° |
| 2026-05-01 08:42 | 45.53378 | -65.53565 | 36778 ft | 520 kts | 66° |
| 2026-05-01 08:42 | 45.56813 | -65.44461 | 36785 ft | 522 kts | 65° |
| 2026-05-01 08:43 | 45.60248 | -65.35330 | 36794 ft | 522 kts | 65° |
| 2026-05-01 08:43 | 45.63677 | -65.26187 | 36794 ft | 522 kts | 65° |
| 2026-05-01 08:44 | 45.67075 | -65.17095 | 36787 ft | 522 kts | 65° |
| 2026-05-01 08:44 | 45.70497 | -65.07905 | 36802 ft | 522 kts | 65° |
| 2026-05-01 08:45 | 45.73914 | -64.98700 | 36801 ft | 522 kts | 65° |
| 2026-05-01 08:45 | 45.77292 | -64.89570 | 36807 ft | 522 kts | 65° |
| 2026-05-01 08:46 | 45.80692 | -64.80347 | 36816 ft | 523 kts | 65° |
| 2026-05-01 08:46 | 45.84090 | -64.71102 | 36811 ft | 524 kts | 65° |
| 2026-05-01 08:47 | 45.87478 | -64.61855 | 36812 ft | 523 kts | 65° |
| 2026-05-01 08:47 | 45.90856 | -64.52597 | 36814 ft | 524 kts | 65° |
| 2026-05-01 08:48 | 45.94227 | -64.43328 | 36816 ft | 524 kts | 65° |
| 2026-05-01 08:48 | 45.97572 | -64.34099 | 36824 ft | 523 kts | 65° |
| 2026-05-01 08:49 | 46.00934 | -64.24790 | 36831 ft | 523 kts | 65° |
| 2026-05-01 08:49 | 46.04286 | -64.15478 | 36834 ft | 523 kts | 65° |
| 2026-05-01 08:50 | 46.07625 | -64.06168 | 36840 ft | 522 kts | 65° |
| 2026-05-01 08:50 | 46.10925 | -63.96937 | 36853 ft | 521 kts | 65° |
| 2026-05-01 08:51 | 46.14237 | -63.87639 | 36869 ft | 521 kts | 65° |
| 2026-05-01 08:51 | 46.17539 | -63.78334 | 36892 ft | 521 kts | 65° |
| 2026-05-01 08:52 | 46.20838 | -63.69010 | 36892 ft | 520 kts | 65° |
| 2026-05-01 08:52 | 46.24092 | -63.59778 | 36899 ft | 518 kts | 65° |
| 2026-05-01 08:53 | 46.27361 | -63.50472 | 36888 ft | 518 kts | 65° |
| 2026-05-01 08:53 | 46.30611 | -63.41184 | 36920 ft | 517 kts | 65° |
| 2026-05-01 08:54 | 46.33852 | -63.31893 | 36924 ft | 516 kts | 65° |
| 2026-05-01 08:54 | 46.37062 | -63.22660 | 36927 ft | 516 kts | 65° |
| 2026-05-01 08:55 | 46.40279 | -63.13370 | 36927 ft | 516 kts | 65° |
| 2026-05-01 08:55 | 46.43499 | -63.04041 | 36929 ft | 516 kts | 65° |
| 2026-05-01 08:56 | 46.46706 | -62.94719 | 36943 ft | 515 kts | 66° |
| 2026-05-01 08:56 | 46.49871 | -62.85484 | 36949 ft | 514 kts | 66° |
| 2026-05-01 08:57 | 46.53048 | -62.76179 | 36950 ft | 514 kts | 65° |
| 2026-05-01 08:57 | 46.56219 | -62.66860 | 36974 ft | 514 kts | 65° |
| 2026-05-01 08:58 | 46.59384 | -62.57530 | 36974 ft | 514 kts | 65° |
| 2026-05-01 08:58 | 46.62547 | -62.48169 | 36975 ft | 516 kts | 65° |
| 2026-05-01 08:59 | 46.65703 | -62.38795 | 36989 ft | 516 kts | 66° |
| 2026-05-01 08:59 | 46.68836 | -62.29458 | 36986 ft | 516 kts | 66° |
| 2026-05-01 09:00 | 46.71983 | -62.20045 | 36991 ft | 516 kts | 66° |
| 2026-05-01 09:00 | 46.75122 | -62.10618 | 36983 ft | 517 kts | 65° |
| 2026-05-01 09:01 | 46.78255 | -62.01174 | 36999 ft | 516 kts | 65° |
| 2026-05-01 09:01 | 46.81377 | -61.91734 | 36990 ft | 516 kts | 65° |
| 2026-05-01 09:02 | 46.84493 | -61.82279 | 36976 ft | 516 kts | 65° |
| 2026-05-01 09:02 | 46.87566 | -61.72918 | 36963 ft | 513 kts | 66° |
| 2026-05-01 09:03 | 46.90641 | -61.63515 | 37004 ft | 512 kts | 66° |
| 2026-05-01 09:03 | 46.93706 | -61.54111 | 36977 ft | 512 kts | 66° |
| 2026-05-01 09:04 | 46.96762 | -61.44699 | 37025 ft | 512 kts | 66° |
| 2026-05-01 09:04 | 46.99809 | -61.35278 | 37032 ft | 510 kts | 66° |
| 2026-05-01 09:05 | 47.02822 | -61.25930 | 37031 ft | 509 kts | 66° |
| 2026-05-01 09:05 | 47.05841 | -61.16529 | 37050 ft | 509 kts | 66° |
| 2026-05-01 09:06 | 47.08852 | -61.07116 | 37047 ft | 509 kts | 66° |
| 2026-05-01 09:06 | 47.11857 | -60.97692 | 37055 ft | 509 kts | 66° |
| 2026-05-01 09:07 | 47.14849 | -60.88269 | 37075 ft | 508 kts | 66° |
| 2026-05-01 09:07 | 47.17834 | -60.78839 | 37077 ft | 508 kts | 66° |
| 2026-05-01 09:08 | 47.20790 | -60.69462 | 37087 ft | 509 kts | 66° |
| 2026-05-01 09:08 | 47.23757 | -60.60011 | 37101 ft | 507 kts | 66° |
| 2026-05-01 09:09 | 47.26702 | -60.50600 | 37111 ft | 506 kts | 66° |
| 2026-05-01 09:09 | 47.29641 | -60.41171 | 37111 ft | 506 kts | 66° |
| 2026-05-01 09:10 | 47.32574 | -60.31727 | 37118 ft | 506 kts | 67° |
| 2026-05-01 09:10 | 47.35494 | -60.22293 | 37124 ft | 506 kts | 67° |
| 2026-05-01 09:11 | 47.38403 | -60.12854 | 37124 ft | 505 kts | 67° |
| 2026-05-01 09:11 | 47.41304 | -60.03408 | 37137 ft | 505 kts | 67° |
| 2026-05-01 09:12 | 47.44179 | -59.94009 | 37138 ft | 505 kts | 68° |
| 2026-05-01 09:12 | 47.47066 | -59.84535 | 37137 ft | 505 kts | 68° |
| 2026-05-01 09:13 | 47.49950 | -59.75044 | 37149 ft | 505 kts | 68° |
| 2026-05-01 09:13 | 47.52825 | -59.65540 | 37149 ft | 506 kts | 68° |
| 2026-05-01 09:14 | 47.55676 | -59.56075 | 37155 ft | 506 kts | 68° |
| 2026-05-01 09:14 | 47.58531 | -59.46556 | 37161 ft | 505 kts | 69° |
| 2026-05-01 09:15 | 47.61380 | -59.37030 | 37171 ft | 506 kts | 69° |
| 2026-05-01 09:15 | 47.64223 | -59.27486 | 37175 ft | 506 kts | 69° |
| 2026-05-01 09:16 | 47.67058 | -59.17931 | 37179 ft | 505 kts | 69° |
| 2026-05-01 09:17 | 47.71295 | -59.03576 | 37189 ft | 504 kts | 68° |
| 2026-05-01 09:17 | 47.75482 | -58.89311 | 37202 ft | 504 kts | 68° |
| 2026-05-01 09:18 | 47.79658 | -58.75002 | 37211 ft | 504 kts | 68° |
| 2026-05-01 09:19 | 47.83828 | -58.60628 | 37213 ft | 503 kts | 68° |
| 2026-05-01 09:20 | 47.87969 | -58.46269 | 37223 ft | 502 kts | 69° |
| 2026-05-01 09:21 | 47.93438 | -58.27172 | 37228 ft | 502 kts | 69° |
| 2026-05-01 09:21 | 47.97532 | -58.12775 | 37241 ft | 501 kts | 69° |
| 2026-05-01 09:22 | 48.02938 | -57.93639 | 37251 ft | 501 kts | 69° |
| 2026-05-01 09:23 | 48.06976 | -57.79242 | 37257 ft | 501 kts | 69° |
| 2026-05-01 09:24 | 48.10985 | -57.64861 | 37260 ft | 501 kts | 69° |
| 2026-05-01 09:25 | 48.16322 | -57.45578 | 37271 ft | 500 kts | 69° |
| 2026-05-01 09:26 | 48.20280 | -57.31180 | 37279 ft | 499 kts | 69° |
| 2026-05-01 09:26 | 48.24235 | -57.16702 | 37279 ft | 499 kts | 69° |
| 2026-05-01 09:27 | 48.28153 | -57.02270 | 37279 ft | 499 kts | 69° |
| 2026-05-01 09:28 | 48.30764 | -56.92606 | 37267 ft | 499 kts | 70° |
| 2026-05-01 09:28 | 48.33366 | -56.82931 | 37261 ft | 498 kts | 70° |
| 2026-05-01 09:29 | 48.37242 | -56.68451 | 37259 ft | 497 kts | 70° |
| 2026-05-01 09:30 | 48.41077 | -56.54031 | 37270 ft | 497 kts | 70° |
| 2026-05-01 09:30 | 48.44912 | -56.39520 | 37275 ft | 497 kts | 70° |
| 2026-05-01 09:31 | 48.47047 | -56.31404 | 37279 ft | 497 kts | 70° |
| 2026-05-01 09:32 | 48.50837 | -56.16922 | 37275 ft | 497 kts | 70° |
| 2026-05-01 09:32 | 48.54628 | -56.02351 | 37281 ft | 496 kts | 70° |
| 2026-05-01 09:33 | 48.57135 | -55.92660 | 37288 ft | 495 kts | 71° |
| 2026-05-01 09:34 | 48.60864 | -55.78168 | 37290 ft | 495 kts | 71° |
| 2026-05-01 09:34 | 48.64590 | -55.63601 | 37288 ft | 495 kts | 71° |
| 2026-05-01 09:35 | 48.68274 | -55.49102 | 37292 ft | 493 kts | 71° |
| 2026-05-01 09:36 | 48.70726 | -55.39402 | 37300 ft | 494 kts | 71° |
| 2026-05-01 09:36 | 48.73174 | -55.29670 | 37316 ft | 493 kts | 71° |
| 2026-05-01 09:37 | 48.75608 | -55.19954 | 37306 ft | 493 kts | 71° |
| 2026-05-01 09:37 | 48.79226 | -55.05436 | 37317 ft | 492 kts | 71° |
| 2026-05-01 09:38 | 48.82838 | -54.90850 | 37314 ft | 492 kts | 71° |
| 2026-05-01 09:39 | 48.86429 | -54.76250 | 37316 ft | 492 kts | 71° |
| 2026-05-01 09:39 | 48.88813 | -54.66503 | 37311 ft | 491 kts | 71° |
| 2026-05-01 09:40 | 48.92351 | -54.51962 | 37310 ft | 491 kts | 71° |
| 2026-05-01 09:41 | 48.94711 | -54.42208 | 37304 ft | 491 kts | 71° |
| 2026-05-01 09:41 | 48.98225 | -54.27600 | 37343 ft | 489 kts | 71° |
| 2026-05-01 09:42 | 49.00554 | -54.17870 | 37344 ft | 488 kts | 71° |
| 2026-05-01 09:43 | 49.05165 | -53.98473 | 37347 ft | 488 kts | 71° |
| 2026-05-01 09:43 | 49.07466 | -53.88726 | 37349 ft | 489 kts | 71° |
| 2026-05-01 09:44 | 49.10907 | -53.74069 | 37352 ft | 488 kts | 71° |
| 2026-05-01 09:45 | 49.13187 | -53.64303 | 37353 ft | 488 kts | 71° |
| 2026-05-01 09:45 | 49.16570 | -53.49732 | 37354 ft | 487 kts | 72° |
| 2026-05-01 09:46 | 49.18825 | -53.39961 | 37354 ft | 487 kts | 71° |
| 2026-05-01 09:46 | 49.21067 | -53.30204 | 37357 ft | 486 kts | 72° |
| 2026-05-01 09:47 | 49.23297 | -53.20453 | 37362 ft | 486 kts | 72° |
| 2026-05-01 09:47 | 49.25520 | -53.10688 | 37362 ft | 486 kts | 72° |
| 2026-05-01 09:48 | 49.27737 | -53.00909 | 37371 ft | 486 kts | 72° |
| 2026-05-01 09:48 | 49.29927 | -52.91200 | 37371 ft | 485 kts | 71° |
| 2026-05-01 09:49 | 49.32118 | -52.81440 | 37371 ft | 484 kts | 72° |
| 2026-05-01 09:49 | 49.34304 | -52.71660 | 37371 ft | 484 kts | 72° |
| 2026-05-01 09:50 | 49.36473 | -52.61910 | 37376 ft | 482 kts | 72° |
| 2026-05-01 09:50 | 49.38634 | -52.52150 | 37376 ft | 482 kts | 72° |
| 2026-05-01 09:51 | 49.40782 | -52.42406 | 37378 ft | 481 kts | 72° |
| 2026-05-01 09:51 | 49.42920 | -52.32657 | 37381 ft | 481 kts | 72° |
| 2026-05-01 09:52 | 49.45036 | -52.22969 | 37384 ft | 481 kts | 72° |
| 2026-05-01 09:52 | 49.47157 | -52.13206 | 37385 ft | 481 kts | 72° |
| 2026-05-01 09:53 | 49.49273 | -52.03425 | 37387 ft | 481 kts | 72° |
| 2026-05-01 09:53 | 49.51477 | -51.93689 | 37387 ft | 481 kts | 69° |
| 2026-05-01 09:54 | 49.54012 | -51.84142 | 37390 ft | 481 kts | 68° |
| 2026-05-01 09:54 | 49.56550 | -51.74705 | 37390 ft | 480 kts | 68° |
| 2026-05-01 09:55 | 49.59051 | -51.65151 | 37395 ft | 480 kts | 69° |
| 2026-05-01 09:55 | 49.61514 | -51.55570 | 37396 ft | 480 kts | 69° |
| 2026-05-01 09:56 | 49.63959 | -51.45990 | 37397 ft | 479 kts | 69° |
| 2026-05-01 09:56 | 49.66380 | -51.36472 | 37399 ft | 479 kts | 69° |
| 2026-05-01 09:57 | 49.68810 | -51.26885 | 37398 ft | 479 kts | 69° |
| 2026-05-01 09:57 | 49.71240 | -51.17259 | 37398 ft | 479 kts | 69° |
| 2026-05-01 09:58 | 49.73652 | -51.07664 | 37400 ft | 479 kts | 69° |
| 2026-05-01 09:58 | 49.76039 | -50.98125 | 37402 ft | 478 kts | 69° |
| 2026-05-01 09:59 | 49.78432 | -50.88522 | 37408 ft | 478 kts | 69° |
| 2026-05-01 09:59 | 49.80818 | -50.78908 | 37409 ft | 478 kts | 69° |
| 2026-05-01 10:00 | 49.83198 | -50.69277 | 37412 ft | 478 kts | 70° |
| 2026-05-01 10:00 | 49.85570 | -50.59635 | 37414 ft | 479 kts | 70° |
| 2026-05-01 10:01 | 49.87920 | -50.50040 | 37413 ft | 479 kts | 70° |
| 2026-05-01 10:01 | 49.90276 | -50.40378 | 37413 ft | 479 kts | 70° |
| 2026-05-01 10:02 | 49.92625 | -50.30701 | 37420 ft | 479 kts | 70° |
| 2026-05-01 10:02 | 49.94967 | -50.21014 | 37419 ft | 480 kts | 70° |
| 2026-05-01 10:03 | 49.97306 | -50.11296 | 37422 ft | 480 kts | 70° |
| 2026-05-01 10:03 | 49.99637 | -50.01569 | 37422 ft | 480 kts | 70° |
| 2026-05-01 10:04 | 50.02012 | -49.91867 | 37427 ft | 480 kts | 69° |
| 2026-05-01 10:04 | 50.04448 | -49.82269 | 37427 ft | 480 kts | 69° |
| 2026-05-01 10:05 | 50.06898 | -49.72580 | 37427 ft | 481 kts | 70° |
| 2026-05-01 10:05 | 50.09330 | -49.62856 | 37433 ft | 481 kts | 70° |
| 2026-05-01 10:06 | 50.11746 | -49.53122 | 37430 ft | 481 kts | 70° |
| 2026-05-01 10:06 | 50.14153 | -49.43376 | 37435 ft | 481 kts | 70° |
| 2026-05-01 10:07 | 50.16539 | -49.33680 | 37431 ft | 481 kts | 70° |
| 2026-05-01 10:07 | 50.18933 | -49.23907 | 37438 ft | 482 kts | 70° |
| 2026-05-01 10:08 | 50.22511 | -49.09215 | 37443 ft | 482 kts | 70° |
| 2026-05-01 10:09 | 50.24883 | -48.99423 | 37443 ft | 482 kts | 70° |
| 2026-05-01 10:09 | 50.27247 | -48.89624 | 37444 ft | 482 kts | 71° |
| 2026-05-01 10:10 | 50.29605 | -48.79802 | 37443 ft | 482 kts | 71° |
| 2026-05-01 10:10 | 50.33117 | -48.65092 | 37449 ft | 483 kts | 71° |
| 2026-05-01 10:11 | 50.35460 | -48.55221 | 37451 ft | 483 kts | 71° |
| 2026-05-01 10:11 | 50.37792 | -48.45354 | 37448 ft | 483 kts | 71° |
| 2026-05-01 10:12 | 50.39723 | -48.37146 | 37452 ft | 483 kts | 71° |
| 2026-05-01 10:13 | 50.43575 | -48.20685 | 37457 ft | 483 kts | 71° |
| 2026-05-01 10:13 | 50.45880 | -48.10774 | 37457 ft | 483 kts | 72° |
| 2026-05-01 10:14 | 50.49320 | -47.95893 | 37460 ft | 483 kts | 72° |
| 2026-05-01 10:14 | 50.51604 | -47.85959 | 37460 ft | 484 kts | 72° |
| 2026-05-01 10:15 | 50.53868 | -47.76064 | 37463 ft | 484 kts | 72° |
| 2026-05-01 10:15 | 50.56134 | -47.66113 | 37462 ft | 483 kts | 72° |
| 2026-05-01 10:16 | 50.58392 | -47.56153 | 37465 ft | 482 kts | 72° |
| 2026-05-01 10:17 | 50.61758 | -47.41211 | 37468 ft | 482 kts | 72° |
| 2026-05-01 10:17 | 50.65091 | -47.26314 | 37468 ft | 482 kts | 72° |
| 2026-05-01 10:18 | 50.68422 | -47.11315 | 37464 ft | 482 kts | 72° |
| 2026-05-01 10:19 | 50.70258 | -47.03002 | 37471 ft | 483 kts | 72° |
| 2026-05-01 10:19 | 50.72463 | -46.92978 | 37471 ft | 483 kts | 73° |
| 2026-05-01 10:20 | 50.75752 | -46.77930 | 37471 ft | 483 kts | 73° |
| 2026-05-01 10:20 | 50.77935 | -46.67883 | 37471 ft | 483 kts | 73° |
| 2026-05-01 10:21 | 50.81178 | -46.52860 | 37473 ft | 483 kts | 73° |
| 2026-05-01 10:22 | 50.84416 | -46.37757 | 37473 ft | 483 kts | 73° |
| 2026-05-01 10:23 | 50.87631 | -46.22646 | 37478 ft | 483 kts | 73° |
| 2026-05-01 10:23 | 50.90821 | -46.07537 | 37478 ft | 484 kts | 73° |
| 2026-05-01 10:24 | 50.95065 | -45.87261 | 37484 ft | 484 kts | 73° |
| 2026-05-01 10:25 | 50.99256 | -45.67036 | 37483 ft | 484 kts | 73° |
| 2026-05-01 10:26 | 51.01350 | -45.56855 | 37485 ft | 485 kts | 74° |
| 2026-05-01 10:27 | 51.05510 | -45.36469 | 37484 ft | 484 kts | 74° |
| 2026-05-01 10:28 | 51.08590 | -45.21236 | 37483 ft | 484 kts | 74° |
| 2026-05-01 10:28 | 51.11669 | -45.05893 | 37483 ft | 485 kts | 74° |
| 2026-05-01 10:29 | 51.14725 | -44.90539 | 37487 ft | 485 kts | 74° |
| 2026-05-01 10:30 | 51.18755 | -44.70110 | 37492 ft | 485 kts | 74° |
| 2026-05-01 10:31 | 51.22769 | -44.49539 | 37489 ft | 485 kts | 75° |
| 2026-05-01 10:32 | 51.25756 | -44.34087 | 37505 ft | 485 kts | 75° |
| 2026-05-01 10:33 | 51.29697 | -44.13513 | 37500 ft | 483 kts | 75° |
| 2026-05-01 10:34 | 51.32610 | -43.98150 | 37507 ft | 483 kts | 75° |
| 2026-05-01 10:34 | 51.34552 | -43.87845 | 37508 ft | 483 kts | 75° |
| 2026-05-01 10:35 | 51.37435 | -43.72438 | 37508 ft | 482 kts | 76° |
| 2026-05-01 10:35 | 51.39349 | -43.62138 | 37511 ft | 482 kts | 76° |
| 2026-05-01 10:36 | 51.42197 | -43.46700 | 37507 ft | 481 kts | 76° |
| 2026-05-01 10:37 | 51.44084 | -43.36402 | 37513 ft | 481 kts | 76° |
| 2026-05-01 10:37 | 51.46883 | -43.21029 | 37512 ft | 479 kts | 76° |
| 2026-05-01 10:38 | 51.48736 | -43.10774 | 37517 ft | 478 kts | 76° |
| 2026-05-01 10:38 | 51.50579 | -43.00509 | 37514 ft | 478 kts | 77° |
| 2026-05-01 10:39 | 51.52414 | -42.90239 | 37516 ft | 478 kts | 77° |
| 2026-05-01 10:39 | 51.54227 | -42.80029 | 37515 ft | 478 kts | 77° |
| 2026-05-01 10:40 | 51.56040 | -42.69763 | 37518 ft | 478 kts | 77° |
| 2026-05-01 10:40 | 51.57845 | -42.59485 | 37519 ft | 478 kts | 77° |
| 2026-05-01 10:41 | 51.59642 | -42.49192 | 37517 ft | 478 kts | 77° |
| 2026-05-01 10:42 | 51.62311 | -42.33797 | 37509 ft | 477 kts | 77° |
| 2026-05-01 10:42 | 51.64083 | -42.23504 | 37519 ft | 476 kts | 78° |
| 2026-05-01 10:43 | 51.65843 | -42.13213 | 37522 ft | 476 kts | 78° |
| 2026-05-01 10:43 | 51.67589 | -42.02945 | 37520 ft | 474 kts | 78° |
| 2026-05-01 10:44 | 51.69321 | -41.92700 | 37524 ft | 473 kts | 78° |
| 2026-05-01 10:44 | 51.71032 | -41.82516 | 37512 ft | 473 kts | 78° |
| 2026-05-01 10:45 | 51.72747 | -41.72252 | 37525 ft | 473 kts | 78° |
| 2026-05-01 10:45 | 51.74453 | -41.61978 | 37524 ft | 473 kts | 78° |
| 2026-05-01 10:46 | 51.76149 | -41.51702 | 37527 ft | 473 kts | 78° |
| 2026-05-01 10:46 | 51.77825 | -41.41492 | 37527 ft | 473 kts | 78° |
| 2026-05-01 10:47 | 51.79503 | -41.31199 | 37526 ft | 473 kts | 78° |
| 2026-05-01 10:47 | 51.81170 | -41.20914 | 37530 ft | 473 kts | 78° |
| 2026-05-01 10:48 | 51.82831 | -41.10606 | 37530 ft | 473 kts | 78° |
| 2026-05-01 10:48 | 51.84481 | -41.00305 | 37530 ft | 473 kts | 78° |
| 2026-05-01 10:49 | 51.86121 | -40.89997 | 37534 ft | 472 kts | 78° |
| 2026-05-01 10:49 | 51.87736 | -40.79784 | 37530 ft | 471 kts | 79° |
| 2026-05-01 10:50 | 51.89351 | -40.69511 | 37531 ft | 471 kts | 79° |
| 2026-05-01 10:50 | 51.90957 | -40.59226 | 37531 ft | 471 kts | 79° |
| 2026-05-01 10:51 | 51.92553 | -40.48938 | 37535 ft | 471 kts | 79° |
| 2026-05-01 10:51 | 51.94141 | -40.38644 | 37535 ft | 471 kts | 79° |
| 2026-05-01 10:52 | 51.95711 | -40.28397 | 37531 ft | 471 kts | 79° |
| 2026-05-01 10:52 | 51.97286 | -40.18053 | 37533 ft | 472 kts | 79° |
| 2026-05-01 10:53 | 51.98853 | -40.07694 | 37530 ft | 472 kts | 79° |
| 2026-05-01 10:53 | 52.00401 | -39.97395 | 37529 ft | 472 kts | 79° |
| 2026-05-01 10:54 | 52.01907 | -39.87024 | 37533 ft | 472 kts | 80° |
| 2026-05-01 10:54 | 52.03387 | -39.76623 | 37533 ft | 473 kts | 79° |
| 2026-05-01 10:55 | 52.04866 | -39.66204 | 37534 ft | 472 kts | 79° |
| 2026-05-01 10:55 | 52.06326 | -39.55883 | 37536 ft | 471 kts | 79° |
| 2026-05-01 10:56 | 52.07787 | -39.45503 | 37536 ft | 471 kts | 80° |
| 2026-05-01 10:56 | 52.09239 | -39.35104 | 37540 ft | 471 kts | 80° |
| 2026-05-01 10:57 | 52.10683 | -39.24693 | 37534 ft | 473 kts | 79° |
| 2026-05-01 10:57 | 52.12122 | -39.14238 | 37537 ft | 474 kts | 80° |
| 2026-05-01 10:58 | 52.13555 | -39.03765 | 37540 ft | 474 kts | 80° |
| 2026-05-01 10:58 | 52.14979 | -38.93283 | 37538 ft | 474 kts | 80° |
| 2026-05-01 10:59 | 52.16383 | -38.82868 | 37537 ft | 474 kts | 80° |
| 2026-05-01 10:59 | 52.17787 | -38.72372 | 37536 ft | 475 kts | 80° |
| 2026-05-01 11:00 | 52.19186 | -38.61838 | 37540 ft | 476 kts | 80° |
| 2026-05-01 11:00 | 52.20579 | -38.51286 | 37539 ft | 476 kts | 80° |
| 2026-05-01 11:01 | 52.21961 | -38.40731 | 37534 ft | 476 kts | 80° |
| 2026-05-01 11:01 | 52.23335 | -38.30151 | 37538 ft | 476 kts | 80° |
| 2026-05-01 11:02 | 52.24692 | -38.19628 | 37536 ft | 478 kts | 80° |
| 2026-05-01 11:02 | 52.26055 | -38.08981 | 37536 ft | 479 kts | 80° |
| 2026-05-01 11:03 | 52.27409 | -37.98326 | 37535 ft | 479 kts | 80° |
| 2026-05-01 11:03 | 52.28753 | -37.87661 | 37533 ft | 479 kts | 80° |
| 2026-05-01 11:04 | 52.30087 | -37.76999 | 37537 ft | 479 kts | 80° |
| 2026-05-01 11:04 | 52.31403 | -37.66389 | 37539 ft | 479 kts | 80° |
| 2026-05-01 11:05 | 52.32726 | -37.55648 | 37543 ft | 479 kts | 80° |
| 2026-05-01 11:05 | 52.34024 | -37.45022 | 37540 ft | 479 kts | 81° |
| 2026-05-01 11:06 | 52.35318 | -37.34338 | 37538 ft | 479 kts | 81° |
| 2026-05-01 11:06 | 52.36602 | -37.23658 | 37523 ft | 477 kts | 80° |
| 2026-05-01 11:07 | 52.38512 | -37.07602 | 37531 ft | 480 kts | 81° |
| 2026-05-01 11:07 | 52.39563 | -36.98685 | 37541 ft | 480 kts | 81° |
| 2026-05-01 11:08 | 52.41022 | -36.86204 | 37547 ft | 480 kts | 81° |
| 2026-05-01 11:09 | 52.42684 | -36.71832 | 37541 ft | 480 kts | 81° |
| 2026-05-01 11:09 | 52.43911 | -36.61123 | 37536 ft | 482 kts | 81° |
| 2026-05-01 11:10 | 52.45749 | -36.44903 | 37535 ft | 482 kts | 81° |
| 2026-05-01 11:10 | 52.46964 | -36.34066 | 37540 ft | 482 kts | 81° |
| 2026-05-01 11:11 | 52.48167 | -36.23236 | 37541 ft | 482 kts | 81° |
| 2026-05-01 11:11 | 52.49362 | -36.12386 | 37536 ft | 484 kts | 81° |
| 2026-05-01 11:12 | 52.50542 | -36.01580 | 37531 ft | 483 kts | 81° |
| 2026-05-01 11:12 | 52.51717 | -35.90723 | 37533 ft | 483 kts | 81° |
| 2026-05-01 11:13 | 52.52883 | -35.79853 | 37533 ft | 483 kts | 81° |
| 2026-05-01 11:13 | 52.54037 | -35.68991 | 37536 ft | 483 kts | 81° |
| 2026-05-01 11:14 | 52.55185 | -35.58088 | 37532 ft | 485 kts | 81° |
| 2026-05-01 11:14 | 52.56320 | -35.47205 | 37530 ft | 486 kts | 81° |
| 2026-05-01 11:15 | 52.57452 | -35.36252 | 37532 ft | 486 kts | 81° |
| 2026-05-01 11:15 | 52.58576 | -35.25271 | 37529 ft | 486 kts | 81° |
| 2026-05-01 11:16 | 52.59688 | -35.14305 | 37525 ft | 486 kts | 81° |
| 2026-05-01 11:16 | 52.60792 | -35.03306 | 37531 ft | 489 kts | 81° |
| 2026-05-01 11:17 | 52.61884 | -34.92328 | 37531 ft | 490 kts | 81° |
| 2026-05-01 11:17 | 52.62973 | -34.81267 | 37531 ft | 488 kts | 81° |
| 2026-05-01 11:18 | 52.64050 | -34.70229 | 37522 ft | 488 kts | 81° |
| 2026-05-01 11:18 | 52.65113 | -34.59206 | 37526 ft | 488 kts | 81° |
| 2026-05-01 11:19 | 52.66168 | -34.48156 | 37522 ft | 489 kts | 81° |
| 2026-05-01 11:19 | 52.67216 | -34.37077 | 37525 ft | 489 kts | 81° |
| 2026-05-01 11:20 | 52.68255 | -34.25982 | 37523 ft | 490 kts | 81° |
| 2026-05-01 11:20 | 52.69277 | -34.14950 | 37521 ft | 490 kts | 81° |
| 2026-05-01 11:21 | 52.70294 | -34.03844 | 37516 ft | 490 kts | 81° |
| 2026-05-01 11:21 | 52.71303 | -33.92714 | 37516 ft | 490 kts | 81° |
| 2026-05-01 11:22 | 52.72300 | -33.81599 | 37526 ft | 490 kts | 81° |
| 2026-05-01 11:22 | 52.73286 | -33.70476 | 37530 ft | 490 kts | 81° |
| 2026-05-01 11:23 | 52.74262 | -33.59354 | 37518 ft | 489 kts | 81° |
| 2026-05-01 11:23 | 52.75219 | -33.48320 | 37519 ft | 488 kts | 80° |
| 2026-05-01 11:24 | 52.76173 | -33.37201 | 37523 ft | 489 kts | 81° |
| 2026-05-01 11:25 | 52.77584 | -33.20518 | 37516 ft | 489 kts | 81° |
| 2026-05-01 11:25 | 52.78973 | -33.03807 | 37510 ft | 489 kts | 81° |
| 2026-05-01 11:26 | 52.80334 | -32.87139 | 37515 ft | 490 kts | 81° |
| 2026-05-01 11:27 | 52.81235 | -32.75945 | 37506 ft | 491 kts | 81° |
| 2026-05-01 11:27 | 52.82124 | -32.64762 | 37507 ft | 491 kts | 81° |
| 2026-05-01 11:28 | 52.83003 | -32.53560 | 37509 ft | 491 kts | 81° |
| 2026-05-01 11:28 | 52.83872 | -32.42347 | 37505 ft | 491 kts | 81° |
| 2026-05-01 11:29 | 52.85152 | -32.25563 | 37507 ft | 489 kts | 81° |
| 2026-05-01 11:30 | 52.86403 | -32.08859 | 37505 ft | 489 kts | 81° |
| 2026-05-01 11:30 | 52.87227 | -31.97677 | 37508 ft | 489 kts | 81° |
| 2026-05-01 11:31 | 52.88040 | -31.86479 | 37505 ft | 489 kts | 81° |
| 2026-05-01 11:31 | 52.88840 | -31.75335 | 37508 ft | 490 kts | 81° |
| 2026-05-01 11:32 | 52.89634 | -31.64108 | 37507 ft | 490 kts | 81° |
| 2026-05-01 11:32 | 52.90417 | -31.52889 | 37503 ft | 490 kts | 81° |
| 2026-05-01 11:33 | 52.91191 | -31.41654 | 37500 ft | 490 kts | 81° |
| 2026-05-01 11:33 | 52.91951 | -31.30431 | 37504 ft | 491 kts | 81° |
| 2026-05-01 11:34 | 52.92702 | -31.19221 | 37493 ft | 492 kts | 81° |
| 2026-05-01 11:34 | 52.93445 | -31.07943 | 37496 ft | 491 kts | 81° |
| 2026-05-01 11:35 | 52.94176 | -30.96686 | 37494 ft | 490 kts | 81° |
| 2026-05-01 11:35 | 52.94895 | -30.85457 | 37494 ft | 490 kts | 81° |
| 2026-05-01 11:36 | 52.95603 | -30.74222 | 37490 ft | 490 kts | 81° |
| 2026-05-01 11:36 | 52.96297 | -30.63037 | 37489 ft | 491 kts | 81° |
| 2026-05-01 11:37 | 52.96986 | -30.51766 | 37489 ft | 491 kts | 81° |
| 2026-05-01 11:37 | 52.97664 | -30.40498 | 37491 ft | 491 kts | 81° |
| 2026-05-01 11:38 | 52.98331 | -30.29228 | 37484 ft | 491 kts | 81° |
| 2026-05-01 11:38 | 52.98988 | -30.17942 | 37484 ft | 492 kts | 81° |
| 2026-05-01 11:39 | 52.99636 | -30.06628 | 37483 ft | 492 kts | 81° |
| 2026-05-01 11:39 | 53.00257 | -29.95370 | 37484 ft | 492 kts | 82° |
| 2026-05-01 11:40 | 53.00727 | -29.84023 | 37480 ft | 493 kts | 83° |
| 2026-05-01 11:40 | 53.01144 | -29.72689 | 37478 ft | 491 kts | 83° |
| 2026-05-01 11:41 | 53.01570 | -29.61367 | 37479 ft | 491 kts | 82° |
| 2026-05-01 11:41 | 53.02003 | -29.50005 | 37479 ft | 491 kts | 82° |
| 2026-05-01 11:42 | 53.02425 | -29.38734 | 37471 ft | 491 kts | 82° |
| 2026-05-01 11:42 | 53.02839 | -29.27395 | 37471 ft | 491 kts | 83° |
| 2026-05-01 11:43 | 53.03241 | -29.16057 | 37468 ft | 491 kts | 83° |
| 2026-05-01 11:43 | 53.03629 | -29.04786 | 37468 ft | 492 kts | 83° |
| 2026-05-01 11:44 | 53.04195 | -28.87772 | 37465 ft | 492 kts | 83° |
| 2026-05-01 11:44 | 53.04560 | -28.76420 | 37463 ft | 492 kts | 83° |
| 2026-05-01 11:45 | 53.04913 | -28.65070 | 37466 ft | 492 kts | 83° |
| 2026-05-01 11:45 | 53.05254 | -28.53747 | 37458 ft | 489 kts | 83° |